Time;durP1;ratioP1;P1;durP2;ratioP2;P2;SDS_P1;SDS_P2;PMS_P1;PMS_P2;Temp;Humidity;BMP_temperature;BMP_pressure;BME280_temperature;BME280_humidity;BME280_pressure;Samples;Min_cycle;Max_cycle;Signal;HPM_P1;HPM_P2
2021/08/04 00:01:29;;;;;;;;;8.50;7.75;;;;;23.06;43.58;100850.50;5059275;28;45741;-57
2021/08/04 00:03:54;;;;;;;;;8.50;7.00;;;;;23.05;43.59;100854.09;5058888;28;45501;-49
2021/08/04 00:06:19;;;;;;;;;5.00;5.00;;;;;23.05;43.70;100853.25;5058996;28;45335;-51
2021/08/04 00:08:45;;;;;;;;;8.00;6.00;;;;;23.04;43.66;100855.06;5058650;28;45313;-59
2021/08/04 00:11:10;;;;;;;;;8.75;7.25;;;;;23.03;43.94;100853.34;5059215;28;45467;-58
2021/08/04 00:13:35;;;;;;;;;5.75;5.75;;;;;23.04;43.74;100848.94;5040576;28;46536;-58
2021/08/04 00:16:01;;;;;;;;;8.25;7.25;;;;;23.03;43.75;100855.16;5058843;28;45416;-60
2021/08/04 00:18:26;;;;;;;;;8.25;6.25;;;;;23.04;43.86;100862.97;5059028;28;45370;-59
2021/08/04 00:20:51;;;;;;;;;8.00;8.00;;;;;23.02;43.94;100856.94;5059099;28;45546;-57
2021/08/04 00:23:17;;;;;;;;;8.00;7.00;;;;;23.01;43.87;100858.75;5058935;28;45958;-53
2021/08/04 00:25:42;;;;;;;;;6.50;6.50;;;;;23.01;44.04;100855.25;5058744;28;45318;-54
2021/08/04 00:28:07;;;;;;;;;10.00;7.75;;;;;22.99;43.98;100855.34;5040560;28;45458;-58
2021/08/04 00:30:33;;;;;;;;;10.50;9.00;;;;;23.00;44.00;100853.56;5040751;28;45581;-56
2021/08/04 00:32:58;;;;;;;;;6.50;5.50;;;;;23.00;44.18;100856.19;5058416;28;45361;-60
2021/08/04 00:35:24;;;;;;;;;6.00;6.00;;;;;22.99;44.18;100854.50;5058497;28;45250;-61
2021/08/04 00:37:50;;;;;;;;;7.00;7.00;;;;;22.98;43.98;100858.13;5058891;28;45194;-56
2021/08/04 00:40:16;;;;;;;;;9.50;9.50;;;;;22.96;44.24;100852.91;5059121;28;45329;-57
2021/08/04 00:42:42;;;;;;;;;9.00;7.25;;;;;22.97;44.29;100843.19;5058254;28;46209;-55
2021/08/04 00:45:08;;;;;;;;;8.25;6.50;;;;;22.97;44.16;100851.13;5058344;28;45422;-60
2021/08/04 00:47:34;;;;;;;;;7.00;7.00;;;;;22.97;43.82;100856.41;5058396;28;45293;-53
2021/08/04 00:50:00;;;;;;;;;7.00;7.00;;;;;22.96;43.97;100849.44;5058285;28;45458;-57
2021/08/04 00:52:25;;;;;;;;;8.00;6.75;;;;;22.95;44.05;100843.28;5058095;28;45631;-56
2021/08/04 00:54:51;;;;;;;;;7.00;5.25;;;;;22.95;44.30;100835.34;5058500;28;45388;-56
2021/08/04 00:57:16;;;;;;;;;10.75;8.25;;;;;22.96;44.22;100838.84;5058480;28;45779;-59
2021/08/04 00:59:41;;;;;;;;;8.75;6.25;;;;;22.95;44.41;100834.53;5058291;28;45626;-58
2021/08/04 01:02:14;;;;;;;;;9.00;7.25;;;;;22.95;44.53;100834.53;5057975;28;45832;-53
2021/08/04 01:04:50;;;;;;;;;7.00;6.50;;;;;22.94;44.43;100824.91;5058028;28;45336;-52
2021/08/04 01:07:29;;;;;;;;;10.00;8.00;;;;;22.94;44.41;100827.53;5058061;28;45389;-56
2021/08/04 01:10:01;;;;;;;;;7.75;7.75;;;;;22.94;44.09;100830.19;5040017;28;45456;-59
2021/08/04 01:13:07;;;;;;;;;6.25;6.25;;;;;22.93;44.56;100828.47;5057715;28;46627;-56
2021/08/04 01:15:58;;;;;;;;;9.25;7.00;;;;;22.92;44.44;100821.50;5049619;28;45319;-60
2021/08/04 01:18:29;;;;;;;;;8.00;6.00;;;;;22.91;44.52;100820.66;5047100;28;45341;-58
2021/08/04 01:20:55;;;;;;;;;6.25;6.25;;;;;22.92;44.63;100826.78;5057968;28;45343;-61
2021/08/04 01:23:42;;;;;;;;;7.25;7.25;;;;;22.90;44.57;100818.97;5057934;28;46551;-56
2021/08/04 01:26:17;;;;;;;;;8.25;8.25;;;;;22.91;44.64;100822.44;5057791;28;45878;-59
2021/08/04 01:28:46;;;;;;;;;8.50;7.75;;;;;22.89;44.77;100822.56;5057672;28;45383;-57
2021/08/04 01:31:15;;;;;;;;;6.75;5.25;;;;;22.90;44.51;100826.03;5058009;28;45549;-57
2021/08/04 01:33:44;;;;;;;;;8.25;7.00;;;;;22.90;44.69;100828.66;5057315;28;46244;-58
2021/08/04 01:36:10;;;;;;;;;9.75;7.25;;;;;22.88;44.73;100820.00;5057511;28;45291;-56
2021/08/04 01:38:37;;;;;;;;;7.75;7.50;;;;;22.89;44.65;100821.69;5057642;28;45646;-59
2021/08/04 01:41:05;;;;;;;;;7.00;7.00;;;;;22.88;44.39;100814.72;5057638;28;45647;-59
2021/08/04 01:43:32;;;;;;;;;6.25;6.25;;;;;22.86;44.86;100812.19;5057022;28;45339;-51
2021/08/04 01:45:59;;;;;;;;;8.25;7.25;;;;;22.84;44.56;100809.66;5057319;28;45760;-57
2021/08/04 01:48:25;;;;;;;;;9.50;7.00;;;;;22.84;44.64;100814.06;5057644;28;45336;-58
2021/08/04 01:50:53;;;;;;;;;7.00;6.00;;;;;22.83;44.40;100812.38;5057919;28;45569;-57
2021/08/04 01:53:21;;;;;;;;;9.00;6.00;;;;;22.83;44.51;100812.38;5056323;28;45329;-56
2021/08/04 01:55:47;;;;;;;;;9.00;6.75;;;;;22.83;44.56;100804.44;5057203;28;45530;-56
2021/08/04 01:58:12;;;;;;;;;8.25;8.00;;;;;22.83;44.56;100804.44;5057332;28;45312;-59
2021/08/04 02:00:37;;;;;;;;;8.75;8.25;;;;;22.81;44.62;100799.28;5056527;28;45376;-54
2021/08/04 02:03:03;;;;;;;;;9.00;8.00;;;;;22.81;44.55;100793.97;5056956;28;46128;-60
2021/08/04 02:05:28;;;;;;;;;9.00;9.00;;;;;22.81;44.42;100799.28;5057017;28;45525;-54
2021/08/04 02:08:31;;;;;;;;;10.75;7.00;;;;;22.81;44.28;100795.78;5057384;28;45391;-56
2021/08/04 02:10:56;;;;;;;;;7.00;7.00;;;;;22.80;44.45;100789.66;5057450;28;45309;-50
2021/08/04 02:13:33;;;;;;;;;9.33;7.33;;;;;22.79;44.58;100795.88;5057099;28;45224;-59
2021/08/04 02:16:25;;;;;;;;;7.75;6.25;;;;;22.78;44.50;100794.19;5056895;28;45416;-58
2021/08/04 02:19:12;;;;;;;;;10.75;7.75;;;;;22.79;44.39;100793.22;5054045;28;45174;-51
2021/08/04 02:21:41;;;;;;;;;7.50;7.50;;;;;22.78;44.38;100796.00;5057242;28;45506;-61
2021/08/04 02:24:06;;;;;;;;;7.25;7.25;;;;;22.77;44.38;100787.19;5056706;28;45511;-54
2021/08/04 02:26:33;;;;;;;;;7.25;7.25;;;;;22.77;44.35;100795.13;5056734;28;45295;-57
2021/08/04 02:29:01;;;;;;;;;7.25;6.75;;;;;22.77;44.55;100796.94;5056657;28;45485;-52
2021/08/04 02:31:26;;;;;;;;;9.50;8.00;;;;;22.74;44.86;100795.34;5057112;28;45281;-48
2021/08/04 02:33:52;;;;;;;;;10.25;7.25;;;;;22.76;44.41;100784.66;5056724;28;47115;-57
2021/08/04 02:36:18;;;;;;;;;9.00;6.25;;;;;22.74;44.55;100787.41;5056634;28;45429;-59
2021/08/04 02:38:44;;;;;;;;;6.00;6.00;;;;;22.73;44.46;100775.16;5056597;28;45396;-57
2021/08/04 02:41:10;;;;;;;;;8.00;8.00;;;;;22.73;44.53;100774.28;5056912;28;45442;-55
2021/08/04 02:43:36;;;;;;;;;7.00;6.25;;;;;22.72;44.60;100773.47;5038245;28;47594;-58
2021/08/04 02:46:02;;;;;;;;;6.25;6.25;;;;;22.72;44.50;100770.81;5056569;28;45462;-56
2021/08/04 02:48:28;;;;;;;;;4.00;4.00;;;;;22.72;44.43;100772.59;5056356;28;45340;-52
2021/08/04 02:51:01;;;;;;;;;8.25;6.50;;;;;22.70;44.48;100776.22;5055712;28;45295;-52
2021/08/04 02:53:26;;;;;;;;;7.00;7.00;;;;;22.69;44.33;100774.50;5056639;28;45349;-60
2021/08/04 02:55:52;;;;;;;;;8.75;7.00;;;;;22.69;44.41;100773.66;5056388;28;45312;-56
2021/08/04 02:58:18;;;;;;;;;8.00;7.50;;;;;22.68;44.36;100772.81;5056532;28;45313;-59
2021/08/04 03:00:44;;;;;;;;;8.75;7.25;;;;;22.68;44.19;100771.94;5056280;28;45570;-59
2021/08/04 03:03:09;;;;;;;;;6.00;6.00;;;;;22.68;44.31;100766.66;5056122;28;45479;-54
2021/08/04 03:05:35;;;;;;;;;8.00;6.75;;;;;22.67;44.33;100765.84;5056253;28;45234;-62
2021/08/04 03:08:00;;;;;;;;;7.25;7.25;;;;;22.68;44.50;100766.66;5056340;28;45249;-57
2021/08/04 03:10:26;;;;;;;;;9.00;9.00;;;;;22.69;44.45;100768.38;5038656;28;45581;-50
2021/08/04 03:12:52;;;;;;;;;7.50;7.50;;;;;22.68;44.37;100766.66;5056777;28;46147;-59
2021/08/04 03:15:18;;;;;;;;;8.25;8.00;;;;;22.69;44.36;100776.28;5059706;28;45301;-58
2021/08/04 03:17:43;;;;;;;;;7.25;7.25;;;;;22.68;44.37;100769.31;5041751;28;45785;-56
2021/08/04 03:20:09;;;;;;;;;9.00;9.00;;;;;22.68;44.37;100778.09;5060005;28;45714;-56
2021/08/04 03:22:35;;;;;;;;;8.25;8.25;;;;;22.68;44.12;100777.22;5059585;28;46088;-59
2021/08/04 03:25:00;;;;;;;;;10.50;8.00;;;;;22.66;44.34;100774.69;5059502;28;45368;-62
2021/08/04 03:27:25;;;;;;;;;8.25;7.50;;;;;22.68;44.34;100764.03;5059947;28;45378;-53
2021/08/04 03:29:51;;;;;;;;;9.00;7.50;;;;;22.69;44.13;100769.22;5059787;28;45606;-56
2021/08/04 03:32:17;;;;;;;;;10.00;10.00;;;;;22.69;44.24;100763.09;5059406;28;46985;-58
2021/08/04 03:34:42;;;;;;;;;9.75;9.00;;;;;22.68;44.27;100756.97;5059436;28;45916;-60
2021/08/04 03:37:08;;;;;;;;;9.00;8.00;;;;;22.69;44.18;100755.16;5059417;28;45289;-57
2021/08/04 03:39:33;;;;;;;;;10.50;10.25;;;;;22.66;44.30;100748.28;5041462;28;45653;-56
2021/08/04 03:41:59;;;;;;;;;9.25;9.25;;;;;22.66;44.12;100753.56;5059645;28;45332;-51
2021/08/04 03:44:24;;;;;;;;;8.00;8.00;;;;;22.65;44.17;100748.41;5059344;28;45294;-58
2021/08/04 03:46:49;;;;;;;;;8.25;7.25;;;;;22.64;44.29;100754.63;5059291;28;45241;-57
2021/08/04 03:49:15;;;;;;;;;10.50;9.75;;;;;22.63;44.02;100750.28;5059485;28;45205;-58
2021/08/04 03:51:41;;;;;;;;;7.75;7.75;;;;;22.63;44.45;100747.66;5041099;28;46470;-59
2021/08/04 03:54:07;;;;;;;;;8.50;8.50;;;;;22.61;44.22;100758.28;5040524;28;45820;-58
2021/08/04 03:56:32;;;;;;;;;11.00;7.50;;;;;22.62;44.20;100756.53;5059189;28;45408;-58
2021/08/04 03:58:58;;;;;;;;;8.00;7.00;;;;;22.60;44.09;100766.34;5059579;28;45419;-56
2021/08/04 04:01:23;;;;;;;;;7.75;7.75;;;;;22.60;44.34;100763.69;5058682;28;45439;-59
2021/08/04 04:03:48;;;;;;;;;7.75;6.75;;;;;22.60;44.35;100768.97;5058626;28;52407;-58
2021/08/04 04:06:14;;;;;;;;;10.00;9.00;;;;;22.60;44.09;100784.81;5059023;28;45343;-58
2021/08/04 04:08:39;;;;;;;;;6.50;6.50;;;;;22.58;44.26;100773.50;5059292;28;45443;-54
2021/08/04 04:11:05;;;;;;;;;7.50;7.50;;;;;22.59;44.18;100772.56;5058775;28;46031;-61
2021/08/04 04:13:32;;;;;;;;;10.00;9.00;;;;;22.58;44.12;100774.38;5059185;28;45945;-59
2021/08/04 04:15:57;;;;;;;;;8.50;8.00;;;;;22.55;44.34;100767.47;5059291;28;45380;-61
2021/08/04 04:18:22;;;;;;;;;8.75;6.00;;;;;22.57;44.06;100774.44;5059106;28;45274;-55
2021/08/04 04:20:47;;;;;;;;;8.50;8.50;;;;;22.55;44.59;100772.75;5058660;28;45930;-60
2021/08/04 04:23:13;;;;;;;;;6.75;6.75;;;;;22.55;44.40;100762.19;5058290;28;45379;-59
2021/08/04 04:25:38;;;;;;;;;7.25;5.75;;;;;22.54;44.15;100759.66;5058638;28;45250;-60
2021/08/04 04:28:04;;;;;;;;;9.00;6.50;;;;;22.55;44.20;100762.19;5058954;28;45245;-62
2021/08/04 04:30:29;;;;;;;;;7.50;6.25;;;;;22.53;44.05;100758.81;5058874;28;46160;-60
2021/08/04 04:32:54;;;;;;;;;8.00;6.25;;;;;22.53;44.27;100760.59;5058608;28;45304;-56
2021/08/04 04:35:20;;;;;;;;;7.75;7.00;;;;;22.51;44.21;100749.28;5058599;28;45339;-60
2021/08/04 04:37:45;;;;;;;;;8.50;7.00;;;;;22.52;44.20;100746.56;5040130;28;45638;-56
2021/08/04 04:40:12;;;;;;;;;7.50;7.00;;;;;22.53;44.06;100753.53;5058043;28;45389;-56
2021/08/04 04:42:37;;;;;;;;;10.50;7.25;;;;;22.52;43.75;100754.47;5058018;28;45432;-59
2021/08/04 04:45:03;;;;;;;;;7.75;6.75;;;;;22.50;43.92;100743.16;5058629;28;45404;-56
2021/08/04 04:47:28;;;;;;;;;7.00;7.00;;;;;22.51;44.20;100750.16;5058957;28;45509;-60
2021/08/04 04:49:54;;;;;;;;;7.50;6.25;;;;;22.51;44.14;100744.00;5058183;28;46183;-60
2021/08/04 04:52:19;;;;;;;;;6.75;6.25;;;;;22.51;43.92;100750.16;5058325;28;45420;-61
2021/08/04 04:54:44;;;;;;;;;12.00;8.50;;;;;22.50;44.12;100743.16;5058228;28;45288;-58
2021/08/04 04:57:10;;;;;;;;;8.25;8.25;;;;;22.50;44.08;100753.72;5058447;28;45475;-59
2021/08/04 04:59:35;;;;;;;;;7.00;6.75;;;;;22.50;43.98;100758.16;5057909;28;45648;-53
2021/08/04 05:02:00;;;;;;;;;6.00;6.00;;;;;22.49;43.83;100752.03;5058287;28;45343;-58
2021/08/04 05:04:26;;;;;;;;;8.25;8.25;;;;;22.49;43.94;100762.59;5058223;28;45250;-62
2021/08/04 05:06:51;;;;;;;;;5.75;5.75;;;;;22.49;44.14;100756.47;5040312;28;45323;-59
2021/08/04 05:09:16;;;;;;;;;8.00;8.00;;;;;22.49;43.69;100767.88;5057743;28;45471;-59
2021/08/04 05:11:42;;;;;;;;;7.75;6.75;;;;;22.49;44.04;100767.03;5057981;28;45741;-58
2021/08/04 05:14:07;;;;;;;;;8.75;7.25;;;;;22.50;43.81;100774.84;5058147;28;45167;-61
2021/08/04 05:16:32;;;;;;;;;7.25;7.25;;;;;22.51;43.88;100773.06;5058546;28;45369;-60
2021/08/04 05:18:58;;;;;;;;;8.00;8.00;;;;;22.51;43.83;100781.84;5057889;28;46320;-58
2021/08/04 05:21:23;;;;;;;;;8.50;7.00;;;;;22.50;43.82;100774.84;5057830;28;45368;-57
2021/08/04 05:23:48;;;;;;;;;6.25;5.25;;;;;22.50;43.74;100777.50;5057812;28;45269;-58
2021/08/04 05:26:14;;;;;;;;;8.00;8.00;;;;;22.45;44.12;100768.19;5058240;28;45214;-61
2021/08/04 05:28:39;;;;;;;;;8.00;6.50;;;;;22.42;43.80;100777.16;5057574;28;46224;-57
2021/08/04 05:31:04;;;;;;;;;8.50;7.00;;;;;22.37;43.63;100773.91;5058091;28;45267;-54
2021/08/04 05:33:30;;;;;;;;;7.25;7.00;;;;;22.34;43.80;100774.09;5057891;28;45340;-61
2021/08/04 05:35:55;;;;;;;;;9.25;7.75;;;;;22.31;44.03;100775.16;5057125;28;46070;-58
2021/08/04 05:38:20;;;;;;;;;7.25;7.25;;;;;22.28;43.70;100775.34;5057346;28;52207;-56
2021/08/04 05:40:46;;;;;;;;;5.75;5.75;;;;;22.26;43.75;100786.97;5057593;28;45251;-61
2021/08/04 05:43:11;;;;;;;;;8.00;7.25;;;;;22.24;43.61;100773.88;5056551;28;45509;-59
2021/08/04 05:45:37;;;;;;;;;7.75;7.75;;;;;22.23;43.52;100772.16;5057615;28;45464;-55
2021/08/04 05:48:06;;;;;;;;;7.50;7.50;;;;;22.18;43.70;100769.81;5039440;28;46437;-59
2021/08/04 05:50:32;;;;;;;;;6.75;6.75;;;;;22.16;43.89;100774.34;5057825;28;45815;-59
2021/08/04 05:52:58;;;;;;;;;6.00;6.00;;;;;22.15;44.01;100772.66;5057386;28;45218;-59
2021/08/04 05:55:24;;;;;;;;;5.50;5.50;;;;;22.16;43.74;100781.44;5057656;28;45312;-61
2021/08/04 05:57:49;;;;;;;;;6.75;6.00;;;;;22.18;43.60;100779.53;5057229;28;46408;-61
2021/08/04 06:00:15;;;;;;;;;4.00;4.00;;;;;22.20;43.77;100781.13;5056944;28;45191;-61
2021/08/04 06:02:40;;;;;;;;;5.50;5.00;;;;;22.21;43.76;100785.44;5057358;28;45370;-61
2021/08/04 06:05:06;;;;;;;;;6.00;6.00;;;;;22.23;43.64;100788.84;5057841;28;45514;-61
2021/08/04 06:07:32;;;;;;;;;5.75;5.75;;;;;22.25;43.75;100791.41;5057424;28;45998;-61
2021/08/04 06:09:57;;;;;;;;;7.25;7.25;;;;;22.26;43.93;100785.19;5057053;28;45498;-61
2021/08/04 06:12:22;;;;;;;;;8.25;7.25;;;;;22.28;43.57;100782.44;5057201;28;45440;-59
2021/08/04 06:14:48;;;;;;;;;6.75;6.00;;;;;22.29;43.72;100782.31;5057325;28;45531;-61
2021/08/04 06:17:13;;;;;;;;;7.00;6.00;;;;;22.32;43.83;100786.59;5057021;28;46148;-60
2021/08/04 06:19:38;;;;;;;;;8.00;6.25;;;;;22.32;43.56;100784.78;5057078;28;45363;-61
2021/08/04 06:22:04;;;;;;;;;8.00;8.00;;;;;22.33;43.63;100778.56;5038795;28;45399;-58
2021/08/04 06:24:29;;;;;;;;;9.25;7.75;;;;;22.34;43.78;100779.38;5057094;28;45373;-61
2021/08/04 06:26:54;;;;;;;;;11.00;8.00;;;;;22.34;43.45;100774.09;5056670;28;45319;-60
2021/08/04 06:29:21;;;;;;;;;7.75;6.50;;;;;22.34;43.58;100779.38;5056645;28;45314;-60
2021/08/04 06:31:47;;;;;;;;;6.25;6.25;;;;;22.33;43.66;100773.28;5056923;28;45356;-60
2021/08/04 06:34:12;;;;;;;;;7.00;7.00;;;;;22.35;43.72;100775.81;5057147;28;45379;-60
2021/08/04 06:36:37;;;;;;;;;8.00;8.00;;;;;22.33;43.77;100769.75;5056859;28;46110;-59
2021/08/04 06:39:03;;;;;;;;;11.00;9.25;;;;;22.34;43.83;100774.09;5056681;28;45399;-58
2021/08/04 06:41:28;;;;;;;;;9.25;8.75;;;;;22.32;43.83;100776.03;5056716;28;45240;-62
2021/08/04 06:43:53;;;;;;;;;10.00;8.50;;;;;22.32;43.80;100778.66;5056738;28;45849;-57
2021/08/04 06:46:18;;;;;;;;;9.00;9.00;;;;;22.31;43.81;100784.88;5056229;28;45343;-57
2021/08/04 06:48:44;;;;;;;;;12.25;9.25;;;;;22.32;43.92;100782.13;5056390;28;45426;-61
2021/08/04 06:51:11;;;;;;;;;7.00;7.00;;;;;22.31;43.78;100775.16;5056891;28;45265;-54
2021/08/04 06:53:36;;;;;;;;;10.00;9.00;;;;;22.32;43.79;100776.03;5056952;28;45170;-61
2021/08/04 06:56:02;;;;;;;;;10.75;8.25;;;;;22.31;43.77;100772.53;5056418;28;45226;-62
2021/08/04 06:58:27;;;;;;;;;10.00;8.50;;;;;22.31;44.01;100774.31;5056256;28;45233;-60
2021/08/04 07:00:52;;;;;;;;;11.00;11.00;;;;;22.32;43.73;100778.66;5056275;28;45372;-61
2021/08/04 07:03:17;;;;;;;;;12.25;9.00;;;;;22.30;44.04;100773.47;5056526;28;45497;-54
2021/08/04 07:05:43;;;;;;;;;8.25;8.25;;;;;22.31;44.00;100779.59;5056138;28;45890;-60
2021/08/04 07:08:08;;;;;;;;;12.75;12.50;;;;;22.31;44.18;100779.59;5056266;28;45377;-61
2021/08/04 07:10:34;;;;;;;;;11.25;10.00;;;;;22.31;43.78;100780.44;5038130;28;46457;-62
2021/08/04 07:13:00;;;;;;;;;11.50;10.00;;;;;22.32;43.88;100786.59;5056483;28;45283;-61
2021/08/04 07:15:26;;;;;;;;;11.25;10.00;;;;;22.33;44.03;100788.25;5056111;28;45730;-60
2021/08/04 07:17:51;;;;;;;;;11.00;8.75;;;;;22.34;43.89;100789.94;5056093;28;45821;-60
2021/08/04 07:20:21;;;;;;;;;9.50;7.75;;;;;22.35;43.85;100787.22;5056251;28;45317;-62
2021/08/04 07:22:48;;;;;;;;;13.25;9.75;;;;;22.37;43.75;100789.75;5038226;28;45297;-61
2021/08/04 07:25:15;;;;;;;;;11.00;8.25;;;;;22.37;43.84;100785.34;5055956;28;45356;-61
2021/08/04 07:27:41;;;;;;;;;10.25;9.25;;;;;22.35;43.56;100787.22;5056245;28;45388;-60
2021/08/04 07:30:09;;;;;;;;;9.75;9.00;;;;;22.34;43.77;100784.66;5056425;28;45667;-60
2021/08/04 07:32:36;;;;;;;;;9.25;9.25;;;;;22.30;43.88;100780.53;5056193;28;45554;-60
2021/08/04 07:35:02;;;;;;;;;8.50;7.00;;;;;22.25;43.76;100780.84;5055809;28;45462;-60
2021/08/04 07:37:31;;;;;;;;;8.75;7.00;;;;;22.23;43.62;100774.81;5055763;28;45907;-59
2021/08/04 07:39:57;;;;;;;;;8.75;8.75;;;;;22.20;43.77;100772.34;5037876;28;45493;-61
2021/08/04 07:42:24;;;;;;;;;7.25;7.00;;;;;22.18;43.58;100772.47;5056124;28;45195;-59
2021/08/04 07:44:49;;;;;;;;;10.00;8.75;;;;;22.22;43.77;100773.94;5055736;28;47133;-57
2021/08/04 07:47:15;;;;;;;;;10.75;8.75;;;;;22.27;43.57;100783.38;5055705;28;45415;-60
2021/08/04 07:49:40;;;;;;;;;7.25;6.00;;;;;22.28;43.81;100777.16;5055661;28;47266;-61
2021/08/04 07:52:06;;;;;;;;;10.75;7.75;;;;;22.31;44.00;100779.59;5055975;28;45609;-60
2021/08/04 07:54:32;;;;;;;;;9.00;7.00;;;;;22.32;43.81;100776.84;5055491;28;47120;-60
2021/08/04 07:56:57;;;;;;;;;12.25;8.75;;;;;22.34;43.46;100784.66;5055700;28;45516;-59
2021/08/04 07:59:22;;;;;;;;;8.75;7.50;;;;;22.35;43.68;100783.72;5057266;28;45365;-60
2021/08/04 08:01:48;;;;;;;;;7.00;7.00;;;;;22.36;43.72;100778.38;5059122;28;45408;-58
2021/08/04 08:04:13;;;;;;;;;8.00;8.00;;;;;22.39;43.53;100787.88;5041022;28;46968;-51
2021/08/04 08:06:39;;;;;;;;;8.00;7.25;;;;;22.40;43.34;100781.66;5059269;28;45348;-59
2021/08/04 08:09:04;;;;;;;;;8.50;6.25;;;;;22.39;43.26;100786.06;5058923;28;45335;-59
2021/08/04 08:11:29;;;;;;;;;11.50;7.00;;;;;22.42;43.42;100782.44;5059083;28;45498;-58
2021/08/04 08:13:55;;;;;;;;;6.75;6.75;;;;;22.45;43.21;100781.38;5058777;28;45417;-57
2021/08/04 08:16:20;;;;;;;;;6.00;5.25;;;;;22.47;43.31;100782.97;5058872;28;45386;-57
2021/08/04 08:18:46;;;;;;;;;10.25;7.50;;;;;22.49;43.24;100783.72;5058854;28;45305;-60
2021/08/04 08:21:11;;;;;;;;;7.25;7.25;;;;;22.53;43.34;100779.94;5059417;28;45446;-54
2021/08/04 08:23:36;;;;;;;;;8.75;7.00;;;;;22.57;43.34;100782.38;5058657;28;46297;-60
2021/08/04 08:26:02;;;;;;;;;9.25;7.25;;;;;22.60;43.38;100780.38;5057386;28;45370;-60
2021/08/04 08:28:27;;;;;;;;;8.50;8.00;;;;;22.62;43.37;100778.47;5040687;28;45304;-58
2021/08/04 08:30:53;;;;;;;;;7.00;6.50;;;;;22.64;43.10;100783.69;5057963;28;45613;-60
2021/08/04 08:33:18;;;;;;;;;7.50;7.00;;;;;22.66;42.73;100773.84;5040318;28;48072;-57
2021/08/04 08:35:43;;;;;;;;;8.00;6.50;;;;;22.68;43.12;100771.94;5058716;28;45268;-52
2021/08/04 08:38:09;;;;;;;;;7.00;7.00;;;;;22.69;42.80;100778.94;5058931;28;45310;-59
2021/08/04 08:40:34;;;;;;;;;8.25;7.25;;;;;22.71;42.79;100777.03;5058761;28;45571;-60
2021/08/04 08:43:00;;;;;;;;;5.00;5.00;;;;;22.72;42.52;100781.38;5058252;28;46102;-60
2021/08/04 08:45:25;;;;;;;;;7.50;7.50;;;;;22.73;42.60;100782.22;5058325;28;45167;-60
2021/08/04 08:47:51;;;;;;;;;6.25;6.25;;;;;22.75;42.60;100778.53;5058443;28;45352;-60
2021/08/04 08:50:22;;;;;;;;;6.50;6.50;;;;;22.75;42.07;100773.25;5058657;28;45316;-59
2021/08/04 08:52:48;;;;;;;;;7.00;6.75;;;;;22.76;42.35;100769.69;5058127;28;46096;-59
2021/08/04 08:55:15;;;;;;;;;6.25;6.25;;;;;22.78;42.43;100773.03;5058732;28;45214;-60
2021/08/04 08:57:40;;;;;;;;;5.50;5.00;;;;;22.80;42.42;100765.88;5058520;28;45230;-59
2021/08/04 09:00:06;;;;;;;;;5.75;5.75;;;;;22.82;41.97;100771.06;5058286;28;45225;-59
2021/08/04 09:02:32;;;;;;;;;5.75;4.00;;;;;22.82;41.89;100773.72;5058041;28;46281;-57
2021/08/04 09:05:07;;;;;;;;;6.75;6.75;;;;;22.82;42.03;100771.91;5058141;28;45436;-59
2021/08/04 09:07:38;;;;;;;;;7.00;5.25;;;;;22.82;42.03;100774.53;5058272;28;45500;-59
2021/08/04 09:10:25;;;;;;;;;5.50;5.50;;;;;22.84;42.11;100771.78;5058165;28;45486;-60
2021/08/04 09:12:54;;;;;;;;;7.00;6.25;;;;;22.87;42.10;100770.75;5057139;28;46122;-57
2021/08/04 09:15:27;;;;;;;;;5.00;5.00;;;;;22.88;41.81;100772.41;5057676;28;45622;-58
2021/08/04 09:18:06;;;;;;;;;6.75;5.25;;;;;22.91;42.05;100777.50;5058055;28;45471;-60
2021/08/04 09:20:40;;;;;;;;;7.00;7.00;;;;;22.89;41.87;100774.13;5058165;28;45395;-59
2021/08/04 09:23:05;;;;;;;;;7.50;5.00;;;;;22.89;41.67;100769.69;5057752;28;46416;-56
2021/08/04 09:25:31;;;;;;;;;6.50;6.00;;;;;22.91;42.11;100772.22;5057717;28;45426;-59
2021/08/04 09:27:58;;;;;;;;;4.00;4.00;;;;;22.94;41.58;100772.03;5057917;28;45352;-59
2021/08/04 09:30:37;;;;;;;;;6.75;6.75;;;;;22.96;41.81;100768.34;5057877;28;45282;-58
2021/08/04 09:33:25;;;;;;;;;5.25;5.25;;;;;22.97;41.66;100764.75;5057725;28;46094;-61
2021/08/04 09:35:56;;;;;;;;;6.50;6.50;;;;;22.98;41.40;100763.78;5057753;28;45782;-59
2021/08/04 09:38:23;;;;;;;;;6.75;5.00;;;;;22.98;41.48;100757.69;5057848;28;45177;-57
2021/08/04 09:41:11;;;;;;;;;8.00;6.75;;;;;22.98;41.02;100757.69;5057827;28;45478;-60
2021/08/04 09:43:37;;;;;;;;;8.00;6.50;;;;;22.97;40.97;100751.53;5039393;28;46908;-60
2021/08/04 09:46:02;;;;;;;;;8.50;6.00;;;;;22.98;41.00;100757.69;5057724;28;45745;-60
2021/08/04 09:48:28;;;;;;;;;5.75;5.75;;;;;22.97;40.78;100750.69;5057401;28;45479;-59
2021/08/04 09:51:02;;;;;;;;;4.75;4.75;;;;;22.97;40.90;100750.69;5057595;28;45682;-59
2021/08/04 09:53:35;;;;;;;;;5.75;5.25;;;;;22.97;40.71;100742.75;5057278;28;46234;-56
2021/08/04 09:56:04;;;;;;;;;6.25;4.75;;;;;22.96;41.10;100741.91;5057263;28;45419;-61
2021/08/04 09:58:29;;;;;;;;;6.75;6.75;;;;;22.96;41.28;100738.44;5057444;28;45225;-58
2021/08/04 10:00:55;;;;;;;;;6.50;6.50;;;;;22.97;41.05;100742.75;5057430;28;45673;-60
2021/08/04 10:03:20;;;;;;;;;8.00;6.00;;;;;22.97;41.16;100740.13;5057159;28;45513;-60
2021/08/04 10:05:45;;;;;;;;;5.25;5.25;;;;;22.96;41.36;100741.91;5057530;28;45336;-58
2021/08/04 10:08:13;;;;;;;;;8.00;8.00;;;;;22.99;41.23;100749.63;5057257;28;45322;-55
2021/08/04 10:10:38;;;;;;;;;9.50;6.50;;;;;22.99;41.34;100740.84;5039344;28;45604;-56
2021/08/04 10:13:06;;;;;;;;;8.00;5.00;;;;;22.98;41.26;100740.00;5056981;28;45812;-60
2021/08/04 10:15:40;;;;;;;;;6.25;5.50;;;;;23.00;41.19;100734.59;5057040;28;45903;-60
2021/08/04 10:18:10;;;;;;;;;7.00;6.25;;;;;23.00;40.93;100734.59;5056972;28;45469;-53
2021/08/04 10:20:37;;;;;;;;;6.00;6.00;;;;;23.00;41.20;100729.31;5057204;28;45587;-55
2021/08/04 10:23:02;;;;;;;;;6.25;6.00;;;;;23.00;41.14;100721.38;5055452;28;45379;-59
2021/08/04 10:25:28;;;;;;;;;6.00;6.00;;;;;23.01;41.32;100721.31;5056841;28;45274;-60
2021/08/04 10:27:55;;;;;;;;;6.75;5.00;;;;;23.01;41.31;100721.31;5056872;28;45518;-59
2021/08/04 10:30:20;;;;;;;;;8.50;7.25;;;;;23.03;41.13;100718.53;5057018;28;45490;-51
2021/08/04 10:32:46;;;;;;;;;9.00;6.50;;;;;23.03;40.88;100718.53;5056679;28;46982;-57
2021/08/04 10:35:11;;;;;;;;;7.25;6.00;;;;;23.03;40.94;100720.34;5056654;28;45455;-55
2021/08/04 10:37:40;;;;;;;;;8.50;6.00;;;;;23.03;40.68;100715.06;5038885;28;45493;-55
2021/08/04 10:40:07;;;;;;;;;6.00;6.00;;;;;23.03;41.13;100712.44;5056995;28;45546;-56
2021/08/04 10:42:38;;;;;;;;;7.25;6.00;;;;;23.02;41.29;100716.84;5038401;28;46105;-57
2021/08/04 10:45:24;;;;;;;;;6.50;6.00;;;;;23.04;41.09;100714.13;5056661;28;45453;-56
2021/08/04 10:48:22;;;;;;;;;6.00;6.00;;;;;23.04;41.06;100719.41;5056994;28;45388;-57
2021/08/04 10:51:11;;;;;;;;;5.00;5.00;;;;;23.03;40.86;100713.25;5056317;28;45288;-57
2021/08/04 10:53:59;;;;;;;;;8.00;7.75;;;;;23.03;41.04;100712.44;5056435;28;46221;-58
2021/08/04 10:56:45;;;;;;;;;5.00;5.00;;;;;23.02;40.83;100719.50;5038414;28;45496;-56
2021/08/04 10:59:10;;;;;;;;;4.00;4.00;;;;;23.01;40.82;100728.38;5056569;28;45234;-57
2021/08/04 11:01:37;;;;;;;;;7.75;6.00;;;;;22.99;41.17;100732.91;5056357;28;45264;-59
2021/08/04 11:04:05;;;;;;;;;7.50;6.00;;;;;22.98;41.01;100725.97;5056286;28;46472;-58
2021/08/04 11:06:30;;;;;;;;;5.50;5.00;;;;;22.98;41.24;100718.03;5038317;28;45855;-61
2021/08/04 11:09:14;;;;;;;;;4.75;4.00;;;;;22.98;41.24;100731.25;5056382;28;45292;-59
2021/08/04 11:11:57;;;;;;;;;7.50;6.00;;;;;22.97;41.54;100724.25;5056532;28;45590;-59
2021/08/04 11:14:58;;;;;;;;;5.00;4.25;;;;;22.98;41.46;100731.25;5056126;28;46497;-60
2021/08/04 11:17:24;;;;;;;;;5.25;5.25;;;;;22.98;41.53;100729.44;5056263;28;45800;-59
2021/08/04 11:19:58;;;;;;;;;7.50;7.50;;;;;22.98;41.93;100718.03;5056550;28;45356;-59
2021/08/04 11:22:31;;;;;;;;;5.50;5.50;;;;;22.98;41.96;100718.03;5056402;28;45320;-60
2021/08/04 11:24:59;;;;;;;;;4.50;4.50;;;;;23.00;42.20;100729.31;5055869;28;46447;-61
2021/08/04 11:27:27;;;;;;;;;7.25;6.00;;;;;23.00;41.93;100730.19;5056117;28;45681;-56